Northern Oaks, Illinois
Current Conditions -  °F | °C
As of 7:54 AM on Wednesday 28 Jan 2015 (Local Time) from KPIA Reporting Station
Clear Clear  
Wind Chill: 17°   Ceiling: Unl
Heat Index: 26°   Visibility: 8mi
Dew Point: 18°   Wind: 9mph
Humidity: 71%   Direction: 150°SSE
Pressure: 30.25"   Gusts: NA
Location:  40.5996°N, 89.5548°W
Report Text: KPIA 281354Z 15008KT 8SM CLR M03/M08 A3025 RMK AO2 SLP252 T10331078
Loading
Personal Weather Stations






























Interactive Weather Map New forecast layout! Learn more

10-Day Weather Forecast

Advertisements
Track Severe Weather on mobile